sensor_id;sensor_type;location;lat;lon;timestamp;P1;durP1;ratioP1;P2;durP2;ratioP2
16442;SDS011;8331;51.654;14.376;2024-02-23T00:02:09;3.73;;;2.00;;
16442;SDS011;8331;51.654;14.376;2024-02-23T00:04:36;2.03;;;1.90;;
16442;SDS011;8331;51.654;14.376;2024-02-23T00:07:03;1.80;;;1.70;;
16442;SDS011;8331;51.654;14.376;2024-02-23T00:09:31;1.70;;;1.60;;
16442;SDS011;8331;51.654;14.376;2024-02-23T00:11:58;1.90;;;1.80;;
16442;SDS011;8331;51.654;14.376;2024-02-23T00:14:25;1.60;;;1.60;;
16442;SDS011;8331;51.654;14.376;2024-02-23T00:16:52;1.70;;;1.60;;
16442;SDS011;8331;51.654;14.376;2024-02-23T00:19:19;2.00;;;1.90;;
16442;SDS011;8331;51.654;14.376;2024-02-23T00:21:47;1.80;;;1.70;;
16442;SDS011;8331;51.654;14.376;2024-02-23T00:24:16;1.80;;;1.70;;
16442;SDS011;8331;51.654;14.376;2024-02-23T00:26:43;2.63;;;1.87;;
16442;SDS011;8331;51.654;14.376;2024-02-23T00:29:11;1.80;;;1.70;;
16442;SDS011;8331;51.654;14.376;2024-02-23T00:31:38;1.60;;;1.50;;
16442;SDS011;8331;51.654;14.376;2024-02-23T00:34:07;1.73;;;1.63;;
16442;SDS011;8331;51.654;14.376;2024-02-23T00:36:41;1.43;;;1.33;;
16442;SDS011;8331;51.654;14.376;2024-02-23T00:39:07;1.50;;;1.40;;
16442;SDS011;8331;51.654;14.376;2024-02-23T00:41:35;1.67;;;1.57;;
16442;SDS011;8331;51.654;14.376;2024-02-23T00:44:02;1.40;;;1.40;;
16442;SDS011;8331;51.654;14.376;2024-02-23T00:46:30;1.60;;;1.30;;
16442;SDS011;8331;51.654;14.376;2024-02-23T00:48:57;2.40;;;1.33;;
16442;SDS011;8331;51.654;14.376;2024-02-23T00:51:24;1.40;;;1.30;;
16442;SDS011;8331;51.654;14.376;2024-02-23T00:53:50;1.20;;;1.20;;
16442;SDS011;8331;51.654;14.376;2024-02-23T00:56:17;1.40;;;1.30;;
16442;SDS011;8331;51.654;14.376;2024-02-23T00:58:44;1.30;;;1.20;;
16442;SDS011;8331;51.654;14.376;2024-02-23T01:01:11;1.50;;;1.40;;
16442;SDS011;8331;51.654;14.376;2024-02-23T01:03:38;1.57;;;1.27;;
16442;SDS011;8331;51.654;14.376;2024-02-23T01:06:05;1.20;;;1.20;;
16442;SDS011;8331;51.654;14.376;2024-02-23T01:08:32;1.50;;;1.40;;
16442;SDS011;8331;51.654;14.376;2024-02-23T01:10:58;1.40;;;1.40;;
16442;SDS011;8331;51.654;14.376;2024-02-23T01:13:25;1.83;;;1.47;;
16442;SDS011;8331;51.654;14.376;2024-02-23T01:15:53;1.47;;;1.40;;
16442;SDS011;8331;51.654;14.376;2024-02-23T01:18:20;1.33;;;1.23;;
16442;SDS011;8331;51.654;14.376;2024-02-23T01:20:47;1.40;;;1.30;;
16442;SDS011;8331;51.654;14.376;2024-02-23T01:23:14;2.20;;;1.40;;
16442;SDS011;8331;51.654;14.376;2024-02-23T01:25:42;1.20;;;1.20;;
16442;SDS011;8331;51.654;14.376;2024-02-23T01:28:09;1.50;;;1.40;;
16442;SDS011;8331;51.654;14.376;2024-02-23T01:30:36;2.70;;;1.27;;
16442;SDS011;8331;51.654;14.376;2024-02-23T01:33:02;1.57;;;1.47;;
16442;SDS011;8331;51.654;14.376;2024-02-23T01:35:30;1.83;;;1.20;;
16442;SDS011;8331;51.654;14.376;2024-02-23T01:37:57;2.10;;;1.30;;
16442;SDS011;8331;51.654;14.376;2024-02-23T01:40:23;1.47;;;1.40;;
16442;SDS011;8331;51.654;14.376;2024-02-23T01:43:00;1.67;;;1.50;;
16442;SDS011;8331;51.654;14.376;2024-02-23T01:45:28;1.40;;;1.40;;
16442;SDS011;8331;51.654;14.376;2024-02-23T01:47:55;1.47;;;1.37;;
16442;SDS011;8331;51.654;14.376;2024-02-23T01:50:23;1.50;;;1.40;;
16442;SDS011;8331;51.654;14.376;2024-02-23T01:52:50;1.10;;;1.10;;
16442;SDS011;8331;51.654;14.376;2024-02-23T01:55:20;1.30;;;1.30;;
16442;SDS011;8331;51.654;14.376;2024-02-23T01:57:48;1.33;;;1.30;;
16442;SDS011;8331;51.654;14.376;2024-02-23T02:00:17;1.30;;;1.30;;
16442;SDS011;8331;51.654;14.376;2024-02-23T02:06:37;1.83;;;1.50;;
16442;SDS011;8331;51.654;14.376;2024-02-23T02:09:04;1.30;;;1.30;;
16442;SDS011;8331;51.654;14.376;2024-02-23T02:11:33;1.30;;;1.30;;
16442;SDS011;8331;51.654;14.376;2024-02-23T02:14:01;1.40;;;1.30;;
16442;SDS011;8331;51.654;14.376;2024-02-23T02:16:30;1.30;;;1.30;;
16442;SDS011;8331;51.654;14.376;2024-02-23T02:18:57;1.20;;;1.20;;
16442;SDS011;8331;51.654;14.376;2024-02-23T02:21:24;1.27;;;1.27;;
16442;SDS011;8331;51.654;14.376;2024-02-23T02:23:51;1.20;;;1.20;;
16442;SDS011;8331;51.654;14.376;2024-02-23T02:26:18;1.37;;;1.27;;
16442;SDS011;8331;51.654;14.376;2024-02-23T02:28:46;2.30;;;1.20;;
16442;SDS011;8331;51.654;14.376;2024-02-23T02:31:14;1.00;;;0.90;;
16442;SDS011;8331;51.654;14.376;2024-02-23T02:33:40;0.93;;;0.90;;
16442;SDS011;8331;51.654;14.376;2024-02-23T02:36:07;0.70;;;0.70;;
16442;SDS011;8331;51.654;14.376;2024-02-23T02:38:34;0.57;;;0.57;;
16442;SDS011;8331;51.654;14.376;2024-02-23T02:41:01;0.40;;;0.40;;
16442;SDS011;8331;51.654;14.376;2024-02-23T02:43:28;0.50;;;0.50;;
16442;SDS011;8331;51.654;14.376;2024-02-23T02:45:57;1.50;;;0.60;;
16442;SDS011;8331;51.654;14.376;2024-02-23T02:48:24;0.53;;;0.40;;
16442;SDS011;8331;51.654;14.376;2024-02-23T02:50:51;0.47;;;0.47;;
16442;SDS011;8331;51.654;14.376;2024-02-23T02:53:19;0.50;;;0.50;;
16442;SDS011;8331;51.654;14.376;2024-02-23T02:55:49;0.50;;;0.50;;
16442;SDS011;8331;51.654;14.376;2024-02-23T02:58:15;0.53;;;0.53;;
16442;SDS011;8331;51.654;14.376;2024-02-23T03:00:43;1.20;;;0.50;;
16442;SDS011;8331;51.654;14.376;2024-02-23T03:03:10;1.17;;;0.30;;
16442;SDS011;8331;51.654;14.376;2024-02-23T03:05:37;0.47;;;0.47;;
16442;SDS011;8331;51.654;14.376;2024-02-23T03:08:06;0.77;;;0.57;;
16442;SDS011;8331;51.654;14.376;2024-02-23T03:10:33;0.50;;;0.50;;
16442;SDS011;8331;51.654;14.376;2024-02-23T03:13:00;0.60;;;0.60;;
16442;SDS011;8331;51.654;14.376;2024-02-23T03:15:27;0.40;;;0.40;;
16442;SDS011;8331;51.654;14.376;2024-02-23T03:17:55;0.60;;;0.60;;
16442;SDS011;8331;51.654;14.376;2024-02-23T03:20:23;0.40;;;0.40;;
16442;SDS011;8331;51.654;14.376;2024-02-23T03:22:50;1.00;;;0.40;;
16442;SDS011;8331;51.654;14.376;2024-02-23T03:25:17;0.53;;;0.50;;
16442;SDS011;8331;51.654;14.376;2024-02-23T03:27:44;0.70;;;0.50;;
16442;SDS011;8331;51.654;14.376;2024-02-23T03:30:11;0.47;;;0.47;;
16442;SDS011;8331;51.654;14.376;2024-02-23T03:32:38;0.70;;;0.60;;
16442;SDS011;8331;51.654;14.376;2024-02-23T03:35:06;0.50;;;0.50;;
16442;SDS011;8331;51.654;14.376;2024-02-23T03:37:35;0.30;;;0.30;;
16442;SDS011;8331;51.654;14.376;2024-02-23T03:40:02;0.60;;;0.60;;
16442;SDS011;8331;51.654;14.376;2024-02-23T03:42:30;1.70;;;0.50;;
16442;SDS011;8331;51.654;14.376;2024-02-23T03:44:57;0.60;;;0.60;;
16442;SDS011;8331;51.654;14.376;2024-02-23T03:47:24;0.40;;;0.40;;
16442;SDS011;8331;51.654;14.376;2024-02-23T03:49:51;0.87;;;0.50;;
16442;SDS011;8331;51.654;14.376;2024-02-23T03:52:18;1.70;;;0.53;;
16442;SDS011;8331;51.654;14.376;2024-02-23T03:54:45;0.60;;;0.60;;
16442;SDS011;8331;51.654;14.376;2024-02-23T03:57:12;0.97;;;0.50;;
16442;SDS011;8331;51.654;14.376;2024-02-23T03:59:39;0.43;;;0.43;;
16442;SDS011;8331;51.654;14.376;2024-02-23T04:02:08;0.30;;;0.30;;
16442;SDS011;8331;51.654;14.376;2024-02-23T04:04:35;0.50;;;0.50;;
16442;SDS011;8331;51.654;14.376;2024-02-23T04:07:02;0.50;;;0.50;;
16442;SDS011;8331;51.654;14.376;2024-02-23T04:09:28;0.60;;;0.60;;
16442;SDS011;8331;51.654;14.376;2024-02-23T04:11:56;1.17;;;0.47;;
16442;SDS011;8331;51.654;14.376;2024-02-23T04:14:22;0.30;;;0.30;;
16442;SDS011;8331;51.654;14.376;2024-02-23T04:16:49;0.53;;;0.53;;
16442;SDS011;8331;51.654;14.376;2024-02-23T04:19:17;0.30;;;0.30;;
16442;SDS011;8331;51.654;14.376;2024-02-23T04:21:44;0.40;;;0.40;;
16442;SDS011;8331;51.654;14.376;2024-02-23T04:24:11;0.40;;;0.40;;
16442;SDS011;8331;51.654;14.376;2024-02-23T04:26:38;0.30;;;0.30;;
16442;SDS011;8331;51.654;14.376;2024-02-23T04:29:05;0.73;;;0.40;;
16442;SDS011;8331;51.654;14.376;2024-02-23T04:31:36;0.50;;;0.40;;
16442;SDS011;8331;51.654;14.376;2024-02-23T04:34:02;0.63;;;0.40;;
16442;SDS011;8331;51.654;14.376;2024-02-23T04:36:29;0.57;;;0.40;;
16442;SDS011;8331;51.654;14.376;2024-02-23T04:38:56;1.43;;;0.40;;
16442;SDS011;8331;51.654;14.376;2024-02-23T04:41:23;0.30;;;0.30;;
16442;SDS011;8331;51.654;14.376;2024-02-23T04:43:51;1.70;;;0.33;;
16442;SDS011;8331;51.654;14.376;2024-02-23T04:46:18;0.33;;;0.33;;
16442;SDS011;8331;51.654;14.376;2024-02-23T04:48:45;0.87;;;0.30;;
16442;SDS011;8331;51.654;14.376;2024-02-23T04:51:12;0.63;;;0.20;;
16442;SDS011;8331;51.654;14.376;2024-02-23T04:53:39;1.30;;;0.30;;
16442;SDS011;8331;51.654;14.376;2024-02-23T04:56:05;0.30;;;0.30;;
16442;SDS011;8331;51.654;14.376;2024-02-23T04:58:33;1.27;;;0.30;;
16442;SDS011;8331;51.654;14.376;2024-02-23T05:01:00;0.85;;;0.30;;
16442;SDS011;8331;51.654;14.376;2024-02-23T05:03:27;0.30;;;0.30;;
16442;SDS011;8331;51.654;14.376;2024-02-23T05:05:53;0.37;;;0.30;;
16442;SDS011;8331;51.654;14.376;2024-02-23T05:08:21;0.40;;;0.30;;
16442;SDS011;8331;51.654;14.376;2024-02-23T05:10:48;0.50;;;0.33;;
16442;SDS011;8331;51.654;14.376;2024-02-23T05:13:15;0.30;;;0.30;;
16442;SDS011;8331;51.654;14.376;2024-02-23T05:15:42;1.53;;;0.40;;
16442;SDS011;8331;51.654;14.376;2024-02-23T05:18:09;1.47;;;0.40;;
16442;SDS011;8331;51.654;14.376;2024-02-23T05:20:36;1.03;;;0.50;;
16442;SDS011;8331;51.654;14.376;2024-02-23T05:23:02;0.50;;;0.27;;
16442;SDS011;8331;51.654;14.376;2024-02-23T05:25:29;0.23;;;0.23;;
16442;SDS011;8331;51.654;14.376;2024-02-23T05:27:56;0.50;;;0.30;;
16442;SDS011;8331;51.654;14.376;2024-02-23T05:30:23;0.30;;;0.30;;
16442;SDS011;8331;51.654;14.376;2024-02-23T05:32:50;0.50;;;0.30;;
16442;SDS011;8331;51.654;14.376;2024-02-23T05:35:17;0.20;;;0.20;;
16442;SDS011;8331;51.654;14.376;2024-02-23T05:37:43;1.60;;;0.30;;
16442;SDS011;8331;51.654;14.376;2024-02-23T05:40:10;1.00;;;0.10;;
16442;SDS011;8331;51.654;14.376;2024-02-23T05:42:37;0.70;;;0.33;;
16442;SDS011;8331;51.654;14.376;2024-02-23T05:45:06;0.43;;;0.20;;
16442;SDS011;8331;51.654;14.376;2024-02-23T05:47:38;1.13;;;0.50;;
16442;SDS011;8331;51.654;14.376;2024-02-23T05:50:08;0.70;;;0.30;;
16442;SDS011;8331;51.654;14.376;2024-02-23T05:52:37;0.57;;;0.40;;
16442;SDS011;8331;51.654;14.376;2024-02-23T05:55:04;2.10;;;0.53;;
16442;SDS011;8331;51.654;14.376;2024-02-23T05:57:30;3.47;;;0.43;;
16442;SDS011;8331;51.654;14.376;2024-02-23T05:59:57;1.03;;;0.27;;
16442;SDS011;8331;51.654;14.376;2024-02-23T06:02:24;0.27;;;0.20;;
16442;SDS011;8331;51.654;14.376;2024-02-23T06:04:51;0.93;;;0.50;;
16442;SDS011;8331;51.654;14.376;2024-02-23T06:07:18;0.20;;;0.20;;
16442;SDS011;8331;51.654;14.376;2024-02-23T06:09:47;0.60;;;0.23;;
16442;SDS011;8331;51.654;14.376;2024-02-23T06:12:14;0.20;;;0.20;;
16442;SDS011;8331;51.654;14.376;2024-02-23T06:14:42;1.10;;;0.20;;
16442;SDS011;8331;51.654;14.376;2024-02-23T06:17:09;1.70;;;0.50;;
16442;SDS011;8331;51.654;14.376;2024-02-23T06:19:36;0.53;;;0.53;;
16442;SDS011;8331;51.654;14.376;2024-02-23T06:22:03;0.80;;;0.47;;
16442;SDS011;8331;51.654;14.376;2024-02-23T06:24:29;0.23;;;0.23;;
16442;SDS011;8331;51.654;14.376;2024-02-23T06:26:56;0.30;;;0.30;;
16442;SDS011;8331;51.654;14.376;2024-02-23T06:29:24;0.70;;;0.40;;
16442;SDS011;8331;51.654;14.376;2024-02-23T06:31:52;0.27;;;0.27;;
16442;SDS011;8331;51.654;14.376;2024-02-23T06:34:18;0.63;;;0.40;;
16442;SDS011;8331;51.654;14.376;2024-02-23T06:36:48;1.00;;;0.40;;
16442;SDS011;8331;51.654;14.376;2024-02-23T06:39:15;1.53;;;0.43;;
16442;SDS011;8331;51.654;14.376;2024-02-23T06:41:44;0.20;;;0.20;;
16442;SDS011;8331;51.654;14.376;2024-02-23T06:44:11;1.50;;;0.20;;
16442;SDS011;8331;51.654;14.376;2024-02-23T06:46:38;2.27;;;0.67;;
16442;SDS011;8331;51.654;14.376;2024-02-23T06:49:05;1.57;;;0.30;;
16442;SDS011;8331;51.654;14.376;2024-02-23T06:51:33;0.30;;;0.30;;
16442;SDS011;8331;51.654;14.376;2024-02-23T06:54:00;0.67;;;0.23;;
16442;SDS011;8331;51.654;14.376;2024-02-23T06:56:27;0.30;;;0.30;;
16442;SDS011;8331;51.654;14.376;2024-02-23T06:58:55;0.65;;;0.40;;
16442;SDS011;8331;51.654;14.376;2024-02-23T07:01:22;0.50;;;0.30;;
16442;SDS011;8331;51.654;14.376;2024-02-23T07:03:50;0.73;;;0.47;;
16442;SDS011;8331;51.654;14.376;2024-02-23T07:06:19;0.50;;;0.50;;
16442;SDS011;8331;51.654;14.376;2024-02-23T07:08:45;0.57;;;0.57;;
16442;SDS011;8331;51.654;14.376;2024-02-23T07:11:12;0.73;;;0.30;;
16442;SDS011;8331;51.654;14.376;2024-02-23T07:13:42;1.33;;;0.47;;
16442;SDS011;8331;51.654;14.376;2024-02-23T07:16:09;0.30;;;0.30;;
16442;SDS011;8331;51.654;14.376;2024-02-23T07:18:36;1.20;;;0.40;;
16442;SDS011;8331;51.654;14.376;2024-02-23T07:21:03;0.40;;;0.40;;
16442;SDS011;8331;51.654;14.376;2024-02-23T07:23:30;0.60;;;0.40;;
16442;SDS011;8331;51.654;14.376;2024-02-23T07:25:56;0.37;;;0.37;;
16442;SDS011;8331;51.654;14.376;2024-02-23T07:28:23;1.80;;;0.63;;
16442;SDS011;8331;51.654;14.376;2024-02-23T07:30:50;0.70;;;0.53;;
16442;SDS011;8331;51.654;14.376;2024-02-23T07:33:16;0.70;;;0.30;;
16442;SDS011;8331;51.654;14.376;2024-02-23T07:35:44;0.40;;;0.30;;
16442;SDS011;8331;51.654;14.376;2024-02-23T07:38:10;1.27;;;1.00;;
16442;SDS011;8331;51.654;14.376;2024-02-23T07:40:37;2.17;;;0.40;;
16442;SDS011;8331;51.654;14.376;2024-02-23T07:43:05;1.13;;;0.40;;
16442;SDS011;8331;51.654;14.376;2024-02-23T07:45:31;2.60;;;0.47;;
16442;SDS011;8331;51.654;14.376;2024-02-23T07:48:00;0.73;;;0.30;;
16442;SDS011;8331;51.654;14.376;2024-02-23T07:50:26;0.40;;;0.30;;
16442;SDS011;8331;51.654;14.376;2024-02-23T07:52:53;0.63;;;0.47;;
16442;SDS011;8331;51.654;14.376;2024-02-23T07:55:20;2.53;;;0.33;;
16442;SDS011;8331;51.654;14.376;2024-02-23T07:57:49;0.87;;;0.40;;
16442;SDS011;8331;51.654;14.376;2024-02-23T08:00:16;1.27;;;0.53;;
16442;SDS011;8331;51.654;14.376;2024-02-23T08:02:43;0.53;;;0.30;;
16442;SDS011;8331;51.654;14.376;2024-02-23T08:05:09;0.20;;;0.20;;
16442;SDS011;8331;51.654;14.376;2024-02-23T08:07:38;1.70;;;0.40;;
16442;SDS011;8331;51.654;14.376;2024-02-23T08:10:06;1.23;;;0.40;;
16442;SDS011;8331;51.654;14.376;2024-02-23T08:12:33;0.40;;;0.40;;
16442;SDS011;8331;51.654;14.376;2024-02-23T08:15:06;1.50;;;0.40;;
16442;SDS011;8331;51.654;14.376;2024-02-23T08:17:33;0.77;;;0.60;;
16442;SDS011;8331;51.654;14.376;2024-02-23T08:20:00;1.77;;;1.07;;
16442;SDS011;8331;51.654;14.376;2024-02-23T08:22:28;0.87;;;0.60;;
16442;SDS011;8331;51.654;14.376;2024-02-23T08:24:55;1.27;;;0.50;;
16442;SDS011;8331;51.654;14.376;2024-02-23T08:27:21;0.70;;;0.50;;
16442;SDS011;8331;51.654;14.376;2024-02-23T08:29:48;0.83;;;0.50;;
16442;SDS011;8331;51.654;14.376;2024-02-23T08:32:15;0.60;;;0.27;;
16442;SDS011;8331;51.654;14.376;2024-02-23T08:34:44;1.63;;;0.60;;
16442;SDS011;8331;51.654;14.376;2024-02-23T08:37:10;3.13;;;1.13;;
16442;SDS011;8331;51.654;14.376;2024-02-23T08:39:38;0.70;;;0.30;;
16442;SDS011;8331;51.654;14.376;2024-02-23T08:42:05;0.67;;;0.47;;
16442;SDS011;8331;51.654;14.376;2024-02-23T08:44:32;0.33;;;0.33;;
16442;SDS011;8331;51.654;14.376;2024-02-23T08:46:59;1.07;;;0.73;;
16442;SDS011;8331;51.654;14.376;2024-02-23T08:49:26;0.30;;;0.20;;
16442;SDS011;8331;51.654;14.376;2024-02-23T08:51:52;0.33;;;0.20;;
16442;SDS011;8331;51.654;14.376;2024-02-23T08:54:19;0.20;;;0.20;;
16442;SDS011;8331;51.654;14.376;2024-02-23T08:56:46;0.10;;;0.10;;
16442;SDS011;8331;51.654;14.376;2024-02-23T08:59:13;0.33;;;0.30;;
16442;SDS011;8331;51.654;14.376;2024-02-23T09:01:40;0.63;;;0.20;;
16442;SDS011;8331;51.654;14.376;2024-02-23T09:04:07;0.20;;;0.20;;
16442;SDS011;8331;51.654;14.376;2024-02-23T09:06:34;0.43;;;0.37;;
16442;SDS011;8331;51.654;14.376;2024-02-23T09:09:05;1.27;;;1.17;;
16442;SDS011;8331;51.654;14.376;2024-02-23T09:11:33;0.30;;;0.20;;
16442;SDS011;8331;51.654;14.376;2024-02-23T09:14:00;0.23;;;0.23;;
16442;SDS011;8331;51.654;14.376;2024-02-23T09:16:27;1.30;;;1.17;;
16442;SDS011;8331;51.654;14.376;2024-02-23T09:18:54;0.60;;;0.30;;
16442;SDS011;8331;51.654;14.376;2024-02-23T09:21:20;0.30;;;0.30;;
16442;SDS011;8331;51.654;14.376;2024-02-23T09:23:47;1.43;;;0.40;;
16442;SDS011;8331;51.654;14.376;2024-02-23T09:26:14;0.70;;;0.40;;
16442;SDS011;8331;51.654;14.376;2024-02-23T09:28:42;0.73;;;0.30;;
16442;SDS011;8331;51.654;14.376;2024-02-23T09:31:09;0.87;;;0.30;;
16442;SDS011;8331;51.654;14.376;2024-02-23T09:33:36;0.40;;;0.40;;
16442;SDS011;8331;51.654;14.376;2024-02-23T09:36:03;0.57;;;0.40;;
16442;SDS011;8331;51.654;14.376;2024-02-23T09:38:30;0.50;;;0.30;;
16442;SDS011;8331;51.654;14.376;2024-02-23T09:40:59;0.30;;;0.30;;
16442;SDS011;8331;51.654;14.376;2024-02-23T09:43:30;0.47;;;0.30;;
16442;SDS011;8331;51.654;14.376;2024-02-23T09:45:59;0.83;;;0.30;;
16442;SDS011;8331;51.654;14.376;2024-02-23T09:48:26;0.63;;;0.50;;
16442;SDS011;8331;51.654;14.376;2024-02-23T09:50:52;1.23;;;0.37;;
16442;SDS011;8331;51.654;14.376;2024-02-23T09:53:20;0.73;;;0.30;;
16442;SDS011;8331;51.654;14.376;2024-02-23T09:55:48;0.20;;;0.20;;
16442;SDS011;8331;51.654;14.376;2024-02-23T09:58:17;0.83;;;0.40;;
16442;SDS011;8331;51.654;14.376;2024-02-23T10:00:46;1.17;;;0.30;;
16442;SDS011;8331;51.654;14.376;2024-02-23T10:03:13;0.60;;;0.33;;
16442;SDS011;8331;51.654;14.376;2024-02-23T10:05:41;1.53;;;1.43;;
16442;SDS011;8331;51.654;14.376;2024-02-23T10:08:12;0.60;;;0.33;;
16442;SDS011;8331;51.654;14.376;2024-02-23T10:10:40;0.47;;;0.30;;
16442;SDS011;8331;51.654;14.376;2024-02-23T10:13:08;0.40;;;0.30;;
16442;SDS011;8331;51.654;14.376;2024-02-23T10:15:35;2.10;;;0.30;;
16442;SDS011;8331;51.654;14.376;2024-02-23T10:18:02;0.20;;;0.20;;
16442;SDS011;8331;51.654;14.376;2024-02-23T10:20:29;0.40;;;0.30;;
16442;SDS011;8331;51.654;14.376;2024-02-23T10:22:56;1.00;;;0.40;;
16442;SDS011;8331;51.654;14.376;2024-02-23T10:25:23;0.40;;;0.33;;
16442;SDS011;8331;51.654;14.376;2024-02-23T10:27:50;0.50;;;0.40;;
16442;SDS011;8331;51.654;14.376;2024-02-23T10:30:16;0.37;;;0.37;;
16442;SDS011;8331;51.654;14.376;2024-02-23T10:32:43;0.70;;;0.23;;
16442;SDS011;8331;51.654;14.376;2024-02-23T10:35:15;0.63;;;0.40;;
16442;SDS011;8331;51.654;14.376;2024-02-23T10:37:44;2.10;;;0.30;;
16442;SDS011;8331;51.654;14.376;2024-02-23T10:40:14;0.30;;;0.30;;
16442;SDS011;8331;51.654;14.376;2024-02-23T10:42:43;2.93;;;0.50;;
16442;SDS011;8331;51.654;14.376;2024-02-23T10:45:17;1.73;;;0.30;;
16442;SDS011;8331;51.654;14.376;2024-02-23T10:47:44;1.00;;;0.40;;
16442;SDS011;8331;51.654;14.376;2024-02-23T10:50:11;0.40;;;0.40;;
16442;SDS011;8331;51.654;14.376;2024-02-23T10:52:43;0.50;;;0.30;;
16442;SDS011;8331;51.654;14.376;2024-02-23T10:55:10;0.40;;;0.20;;
16442;SDS011;8331;51.654;14.376;2024-02-23T10:57:37;0.77;;;0.40;;
16442;SDS011;8331;51.654;14.376;2024-02-23T11:00:06;0.77;;;0.40;;
16442;SDS011;8331;51.654;14.376;2024-02-23T11:02:40;1.43;;;0.40;;
16442;SDS011;8331;51.654;14.376;2024-02-23T11:05:08;0.53;;;0.30;;
16442;SDS011;8331;51.654;14.376;2024-02-23T11:07:39;0.47;;;0.30;;
16442;SDS011;8331;51.654;14.376;2024-02-23T11:10:09;1.00;;;0.40;;
16442;SDS011;8331;51.654;14.376;2024-02-23T11:12:39;0.47;;;0.47;;
16442;SDS011;8331;51.654;14.376;2024-02-23T11:15:06;1.43;;;0.40;;
16442;SDS011;8331;51.654;14.376;2024-02-23T11:17:33;0.50;;;0.30;;
16442;SDS011;8331;51.654;14.376;2024-02-23T11:20:02;0.60;;;0.30;;
16442;SDS011;8331;51.654;14.376;2024-02-23T11:22:31;1.07;;;0.50;;
16442;SDS011;8331;51.654;14.376;2024-02-23T11:25:05;0.33;;;0.33;;
16442;SDS011;8331;51.654;14.376;2024-02-23T11:27:35;2.77;;;0.83;;
16442;SDS011;8331;51.654;14.376;2024-02-23T11:30:06;0.47;;;0.40;;
16442;SDS011;8331;51.654;14.376;2024-02-23T11:32:36;2.20;;;0.50;;
16442;SDS011;8331;51.654;14.376;2024-02-23T11:35:05;0.40;;;0.40;;
16442;SDS011;8331;51.654;14.376;2024-02-23T11:37:32;2.10;;;0.50;;
16442;SDS011;8331;51.654;14.376;2024-02-23T11:40:00;0.57;;;0.40;;
16442;SDS011;8331;51.654;14.376;2024-02-23T11:42:27;1.30;;;0.40;;
16442;SDS011;8331;51.654;14.376;2024-02-23T11:44:55;0.97;;;0.40;;
16442;SDS011;8331;51.654;14.376;2024-02-23T11:47:22;0.70;;;0.57;;
16442;SDS011;8331;51.654;14.376;2024-02-23T11:49:50;0.57;;;0.57;;
16442;SDS011;8331;51.654;14.376;2024-02-23T11:52:16;0.43;;;0.30;;
16442;SDS011;8331;51.654;14.376;2024-02-23T11:54:44;3.03;;;0.73;;
16442;SDS011;8331;51.654;14.376;2024-02-23T11:57:11;0.70;;;0.30;;
16442;SDS011;8331;51.654;14.376;2024-02-23T11:59:39;2.10;;;0.30;;
16442;SDS011;8331;51.654;14.376;2024-02-23T12:02:06;3.07;;;1.73;;
16442;SDS011;8331;51.654;14.376;2024-02-23T12:04:34;1.37;;;0.70;;
16442;SDS011;8331;51.654;14.376;2024-02-23T12:07:01;0.40;;;0.40;;
16442;SDS011;8331;51.654;14.376;2024-02-23T12:09:27;1.13;;;0.70;;
16442;SDS011;8331;51.654;14.376;2024-02-23T12:11:54;0.87;;;0.60;;
16442;SDS011;8331;51.654;14.376;2024-02-23T12:14:21;0.57;;;0.57;;
16442;SDS011;8331;51.654;14.376;2024-02-23T12:16:49;0.80;;;0.60;;
16442;SDS011;8331;51.654;14.376;2024-02-23T12:19:15;0.80;;;0.60;;
16442;SDS011;8331;51.654;14.376;2024-02-23T12:21:44;3.20;;;0.50;;
16442;SDS011;8331;51.654;14.376;2024-02-23T12:24:12;1.42;;;0.65;;
16442;SDS011;8331;51.654;14.376;2024-02-23T12:26:38;0.93;;;0.70;;
16442;SDS011;8331;51.654;14.376;2024-02-23T12:29:05;4.30;;;4.00;;
16442;SDS011;8331;51.654;14.376;2024-02-23T12:31:32;1.77;;;1.67;;
16442;SDS011;8331;51.654;14.376;2024-02-23T12:34:02;1.63;;;0.40;;
16442;SDS011;8331;51.654;14.376;2024-02-23T12:36:29;1.20;;;0.30;;
16442;SDS011;8331;51.654;14.376;2024-02-23T12:38:57;2.00;;;1.90;;
16442;SDS011;8331;51.654;14.376;2024-02-23T12:41:24;1.87;;;0.40;;
16442;SDS011;8331;51.654;14.376;2024-02-23T12:43:51;0.40;;;0.40;;
16442;SDS011;8331;51.654;14.376;2024-02-23T12:46:20;2.93;;;2.70;;
16442;SDS011;8331;51.654;14.376;2024-02-23T12:48:47;0.60;;;0.50;;
16442;SDS011;8331;51.654;14.376;2024-02-23T12:51:14;1.53;;;0.40;;
16442;SDS011;8331;51.654;14.376;2024-02-23T12:53:42;2.17;;;0.60;;
16442;SDS011;8331;51.654;14.376;2024-02-23T12:56:10;1.23;;;0.50;;
16442;SDS011;8331;51.654;14.376;2024-02-23T12:58:38;2.00;;;0.50;;
16442;SDS011;8331;51.654;14.376;2024-02-23T13:01:05;1.60;;;0.50;;
16442;SDS011;8331;51.654;14.376;2024-02-23T13:03:33;0.60;;;0.60;;
16442;SDS011;8331;51.654;14.376;2024-02-23T13:06:00;0.93;;;0.40;;
16442;SDS011;8331;51.654;14.376;2024-02-23T13:08:28;1.77;;;0.50;;
16442;SDS011;8331;51.654;14.376;2024-02-23T13:10:56;0.80;;;0.60;;
16442;SDS011;8331;51.654;14.376;2024-02-23T13:13:23;2.33;;;0.50;;
16442;SDS011;8331;51.654;14.376;2024-02-23T13:15:51;1.20;;;0.70;;
16442;SDS011;8331;51.654;14.376;2024-02-23T13:18:18;1.10;;;0.60;;
16442;SDS011;8331;51.654;14.376;2024-02-23T13:20:46;1.13;;;0.60;;
16442;SDS011;8331;51.654;14.376;2024-02-23T13:23:13;0.50;;;0.40;;
16442;SDS011;8331;51.654;14.376;2024-02-23T13:25:44;1.20;;;0.60;;
16442;SDS011;8331;51.654;14.376;2024-02-23T13:28:10;0.63;;;0.37;;
16442;SDS011;8331;51.654;14.376;2024-02-23T13:30:38;1.10;;;0.50;;
16442;SDS011;8331;51.654;14.376;2024-02-23T13:33:06;0.83;;;0.53;;
16442;SDS011;8331;51.654;14.376;2024-02-23T13:35:35;0.93;;;0.63;;
16442;SDS011;8331;51.654;14.376;2024-02-23T13:38:02;1.27;;;0.40;;
16442;SDS011;8331;51.654;14.376;2024-02-23T13:40:30;2.40;;;0.60;;
16442;SDS011;8331;51.654;14.376;2024-02-23T13:42:58;1.70;;;0.60;;
16442;SDS011;8331;51.654;14.376;2024-02-23T13:45:25;1.10;;;0.57;;
16442;SDS011;8331;51.654;14.376;2024-02-23T13:47:59;1.50;;;0.57;;
16442;SDS011;8331;51.654;14.376;2024-02-23T13:50:27;1.37;;;0.77;;
16442;SDS011;8331;51.654;14.376;2024-02-23T13:52:54;2.57;;;0.67;;
16442;SDS011;8331;51.654;14.376;2024-02-23T13:55:22;0.73;;;0.50;;
16442;SDS011;8331;51.654;14.376;2024-02-23T13:57:49;1.77;;;0.50;;
16442;SDS011;8331;51.654;14.376;2024-02-23T14:00:17;0.60;;;0.60;;
16442;SDS011;8331;51.654;14.376;2024-02-23T14:02:44;1.57;;;0.57;;
16442;SDS011;8331;51.654;14.376;2024-02-23T14:05:11;0.83;;;0.33;;
16442;SDS011;8331;51.654;14.376;2024-02-23T14:07:39;1.20;;;0.57;;
16442;SDS011;8331;51.654;14.376;2024-02-23T14:10:06;0.83;;;0.47;;
16442;SDS011;8331;51.654;14.376;2024-02-23T14:12:34;0.83;;;0.47;;
16442;SDS011;8331;51.654;14.376;2024-02-23T14:15:01;0.53;;;0.53;;
16442;SDS011;8331;51.654;14.376;2024-02-23T14:17:28;0.33;;;0.33;;
16442;SDS011;8331;51.654;14.376;2024-02-23T14:19:57;2.63;;;0.93;;
16442;SDS011;8331;51.654;14.376;2024-02-23T14:22:24;1.17;;;0.50;;
16442;SDS011;8331;51.654;14.376;2024-02-23T14:24:50;1.60;;;0.60;;
16442;SDS011;8331;51.654;14.376;2024-02-23T14:27:17;0.50;;;0.50;;
16442;SDS011;8331;51.654;14.376;2024-02-23T14:29:44;0.70;;;0.40;;
16442;SDS011;8331;51.654;14.376;2024-02-23T14:32:15;1.00;;;0.50;;
16442;SDS011;8331;51.654;14.376;2024-02-23T14:34:43;1.03;;;0.60;;
16442;SDS011;8331;51.654;14.376;2024-02-23T14:37:10;1.37;;;0.80;;
16442;SDS011;8331;51.654;14.376;2024-02-23T14:39:37;2.30;;;0.50;;
16442;SDS011;8331;51.654;14.376;2024-02-23T14:42:04;1.17;;;0.57;;
16442;SDS011;8331;51.654;14.376;2024-02-23T14:44:30;1.87;;;0.70;;
16442;SDS011;8331;51.654;14.376;2024-02-23T14:46:57;2.30;;;0.90;;
16442;SDS011;8331;51.654;14.376;2024-02-23T14:49:24;2.43;;;1.17;;
16442;SDS011;8331;51.654;14.376;2024-02-23T14:51:51;2.37;;;1.10;;
16442;SDS011;8331;51.654;14.376;2024-02-23T14:54:18;1.57;;;1.00;;